createdAt,value
2023-03-21T00:00:55.879Z,19.07
2023-03-21T00:03:27.588Z,19.37
2023-03-21T00:05:55.686Z,19.07
2023-03-21T00:08:26.413Z,19.20
2023-03-21T00:10:58.388Z,18.80
2023-03-21T00:13:28.151Z,19.20
2023-03-21T00:16:20.950Z,19.90
2023-03-21T00:18:48.780Z,20.67
2023-03-21T00:24:07.978Z,19.53
2023-03-21T00:26:36.167Z,19.13
2023-03-21T00:29:04.270Z,19.47
2023-03-21T00:31:32.195Z,19.23
2023-03-21T00:34:02.472Z,19.37
2023-03-21T00:36:32.389Z,20.23
2023-03-21T00:39:01.218Z,20.30
2023-03-21T00:41:42.082Z,18.73
2023-03-21T00:44:13.608Z,19.70
2023-03-21T00:46:51.700Z,19.87
2023-03-21T00:49:27.650Z,18.93
2023-03-21T00:51:59.488Z,19.47
2023-03-21T00:54:33.605Z,18.00
2023-03-21T00:57:03.134Z,18.57
2023-03-21T00:59:31.830Z,18.77
2023-03-21T01:02:00.799Z,18.93
2023-03-21T01:04:30.490Z,19.07
2023-03-21T01:06:58.441Z,18.50
2023-03-21T01:09:26.500Z,18.97
2023-03-21T01:11:54.735Z,18.63
2023-03-21T01:14:24.302Z,18.50
2023-03-21T01:16:55.059Z,18.60
2023-03-21T01:19:37.602Z,18.90
2023-03-21T01:22:15.532Z,18.70
2023-03-21T01:24:53.137Z,18.97
2023-03-21T01:27:22.602Z,18.90
2023-03-21T01:29:50.929Z,19.70
2023-03-21T01:32:18.874Z,19.67
2023-03-21T01:34:46.838Z,18.33
2023-03-21T01:37:17.736Z,18.67
2023-03-21T01:39:49.117Z,19.63
2023-03-21T01:42:17.106Z,19.97
2023-03-21T01:44:58.643Z,20.13
2023-03-21T01:47:35.434Z,19.67
2023-03-21T01:50:23.479Z,19.30
2023-03-21T01:53:04.005Z,21.13
2023-03-21T01:55:36.495Z,19.90
2023-03-21T01:58:14.075Z,20.10
2023-03-21T02:00:50.685Z,19.70
2023-03-21T02:03:36.077Z,20.20
2023-03-21T02:06:32.335Z,21.47
2023-03-21T02:09:15.724Z,21.20
2023-03-21T02:11:46.497Z,21.70
2023-03-21T02:14:26.577Z,22.30
2023-03-21T02:17:07.870Z,21.17
2023-03-21T02:20:29.030Z,21.67
2023-03-21T02:23:27.642Z,21.27
2023-03-21T02:26:41.999Z,21.13
2023-03-21T02:29:29.564Z,22.60
2023-03-21T02:32:17.910Z,22.40
2023-03-21T02:35:24.105Z,21.43
2023-03-21T02:38:00.792Z,21.30
2023-03-21T02:40:35.656Z,21.40
2023-03-21T02:43:22.183Z,21.10
2023-03-21T02:45:55.590Z,22.43
2023-03-21T02:48:35.511Z,21.97
2023-03-21T02:51:13.747Z,21.23
2023-03-21T02:53:51.780Z,21.20
2023-03-21T02:56:26.080Z,21.33
2023-03-21T02:58:59.359Z,22.07
2023-03-21T03:01:28.984Z,23.17
2023-03-21T03:03:57.034Z,22.63
2023-03-21T03:06:30.473Z,21.37
2023-03-21T03:09:17.812Z,23.20
2023-03-21T03:11:46.916Z,22.10
2023-03-21T03:14:56.546Z,23.73
2023-03-21T03:17:35.910Z,23.60
2023-03-21T03:20:20.945Z,23.53
2023-03-21T03:22:57.356Z,23.47
2023-03-21T03:25:42.199Z,24.17
2023-03-21T03:28:15.589Z,24.57
2023-03-21T03:30:57.407Z,24.27
2023-03-21T03:33:37.980Z,23.33
2023-03-21T03:36:10.912Z,24.20
2023-03-21T03:38:40.141Z,24.47
2023-03-21T03:41:15.397Z,24.33
2023-03-21T03:43:52.231Z,25.37
2023-03-21T03:46:26.377Z,25.17
2023-03-21T03:48:59.257Z,24.70
2023-03-21T03:51:30.996Z,25.03
2023-03-21T03:54:21.613Z,24.00
2023-03-21T03:56:51.775Z,24.23
2023-03-21T03:59:21.908Z,24.67
2023-03-21T04:02:04.453Z,23.87
2023-03-21T04:04:32.561Z,24.93
2023-03-21T04:07:00.567Z,26.13
2023-03-21T04:09:42.573Z,24.53
2023-03-21T04:12:14.606Z,25.23
2023-03-21T04:14:51.874Z,23.90
2023-03-21T04:17:20.290Z,23.37
2023-03-21T04:19:55.574Z,23.53
2023-03-21T04:22:26.985Z,23.07
2023-03-21T04:24:55.190Z,23.90
2023-03-21T04:27:24.645Z,23.37
2023-03-21T04:30:25.784Z,23.00
2023-03-21T04:33:01.258Z,23.60
2023-03-21T04:35:32.014Z,24.13
2023-03-21T04:38:03.549Z,22.77
2023-03-21T04:40:31.648Z,23.70
2023-03-21T04:43:01.268Z,24.33
2023-03-21T04:45:29.738Z,24.37
2023-03-21T04:47:58.269Z,25.27
2023-03-21T04:50:26.487Z,25.33
2023-03-21T04:52:54.373Z,25.23
2023-03-21T04:55:23.003Z,25.63
2023-03-21T04:57:50.873Z,26.00
2023-03-21T05:00:21.031Z,24.70
2023-03-21T05:02:49.228Z,25.93
2023-03-21T05:05:17.218Z,25.37
2023-03-21T05:07:46.244Z,26.57
2023-03-21T05:10:14.228Z,25.53
2023-03-21T05:12:43.201Z,26.90
2023-03-21T05:15:11.480Z,25.87
2023-03-21T05:17:42.668Z,25.57
2023-03-21T05:20:12.037Z,26.23
2023-03-21T05:22:41.282Z,26.33
2023-03-21T05:25:14.129Z,25.53
2023-03-21T05:28:03.746Z,26.87
2023-03-21T05:30:33.437Z,27.93
2023-03-21T05:33:04.474Z,27.03
2023-03-21T05:35:32.994Z,26.70
2023-03-21T05:38:04.368Z,27.13
2023-03-21T05:40:40.357Z,26.63
2023-03-21T05:43:09.337Z,26.33
2023-03-21T05:45:37.488Z,26.90
2023-03-21T05:48:07.928Z,25.97
2023-03-21T05:50:47.685Z,25.53
2023-03-21T05:53:21.779Z,25.30
2023-03-21T05:55:50.870Z,25.17
2023-03-21T05:58:38.740Z,26.37
2023-03-21T06:01:07.749Z,25.97
2023-03-21T06:03:40.390Z,25.90
2023-03-21T06:06:14.288Z,26.87
2023-03-21T06:08:51.257Z,25.20
2023-03-21T06:11:26.857Z,24.60
2023-03-21T06:14:12.866Z,25.67
2023-03-21T06:16:42.168Z,25.67
2023-03-21T06:19:11.714Z,25.90
2023-03-21T06:22:01.019Z,25.13
2023-03-21T06:24:29.285Z,25.40
2023-03-21T06:26:57.375Z,25.13
2023-03-21T06:29:29.008Z,25.40
2023-03-21T06:31:57.647Z,24.60
2023-03-21T06:34:27.061Z,26.00
2023-03-21T06:36:55.169Z,24.67
2023-03-21T06:39:28.729Z,25.80
2023-03-21T06:41:56.931Z,26.20
2023-03-21T06:44:26.078Z,26.30
2023-03-21T06:47:01.128Z,26.03
2023-03-21T06:49:30.975Z,25.70
2023-03-21T06:52:02.652Z,25.47
2023-03-21T06:54:30.827Z,25.93
2023-03-21T06:57:08.899Z,27.77
2023-03-21T06:59:41.452Z,27.63
2023-03-21T07:02:12.115Z,27.20
2023-03-21T07:04:47.650Z,27.83
2023-03-21T07:07:20.611Z,27.10
2023-03-21T07:09:48.599Z,27.03
2023-03-21T07:12:17.417Z,26.23
2023-03-21T07:15:01.130Z,27.47
2023-03-21T07:17:29.405Z,26.17
2023-03-21T07:20:00.007Z,26.33
2023-03-21T07:22:28.103Z,26.87
2023-03-21T07:25:04.836Z,27.27
2023-03-21T07:27:41.042Z,26.57
2023-03-21T07:30:11.500Z,26.57
2023-03-21T07:32:40.824Z,25.97
2023-03-21T07:35:13.726Z,26.97
2023-03-21T07:37:42.988Z,26.70
2023-03-21T07:40:16.176Z,26.17
2023-03-21T07:42:44.358Z,24.97
2023-03-21T07:45:16.528Z,24.93
2023-03-21T07:47:46.701Z,24.80
2023-03-21T07:50:16.535Z,25.53
2023-03-21T07:52:46.162Z,24.50
2023-03-21T07:55:14.273Z,25.30
2023-03-21T07:57:42.294Z,24.27
2023-03-21T08:00:12.632Z,24.57
2023-03-21T08:02:43.645Z,23.33
2023-03-21T08:05:12.020Z,25.40
2023-03-21T08:07:41.279Z,23.50
2023-03-21T08:10:11.623Z,25.70
2023-03-21T08:12:39.709Z,26.60
2023-03-21T08:15:08.772Z,25.97
2023-03-21T08:17:38.029Z,26.87
2023-03-21T08:20:09.065Z,27.10
2023-03-21T08:22:37.699Z,26.07
2023-03-21T08:25:08.738Z,26.87
2023-03-21T08:27:36.676Z,28.03
2023-03-21T08:30:05.171Z,27.47
2023-03-21T08:32:33.700Z,26.73
2023-03-21T08:35:02.518Z,27.43
2023-03-21T08:37:31.142Z,27.83
2023-03-21T08:39:59.051Z,26.53
2023-03-21T08:42:28.390Z,26.93
2023-03-21T08:44:56.412Z,25.30
2023-03-21T08:47:24.354Z,27.33
2023-03-21T08:49:52.319Z,25.60
2023-03-21T08:52:20.241Z,25.67
2023-03-21T08:54:48.448Z,26.43
2023-03-21T08:57:16.410Z,26.10
2023-03-21T08:59:45.836Z,25.40
2023-03-21T09:02:15.724Z,25.40
2023-03-21T09:04:44.830Z,25.40
2023-03-21T09:07:14.932Z,27.40
2023-03-21T09:09:43.686Z,26.60
2023-03-21T09:12:11.635Z,27.10
2023-03-21T09:14:39.608Z,27.10
2023-03-21T09:17:08.885Z,26.80
2023-03-21T09:19:38.790Z,27.33
2023-03-21T09:22:14.265Z,27.27
2023-03-21T09:24:42.703Z,27.60
2023-03-21T09:27:11.192Z,27.53
2023-03-21T09:29:39.202Z,26.50
2023-03-21T09:32:08.802Z,26.53
2023-03-21T09:34:41.045Z,26.60
2023-03-21T09:37:13.734Z,25.23
2023-03-21T09:39:42.790Z,25.77
2023-03-21T09:42:34.593Z,25.73
2023-03-21T09:45:12.353Z,26.23
2023-03-21T09:47:49.685Z,25.73
2023-03-21T09:50:21.909Z,25.40
2023-03-21T09:52:56.845Z,24.33
2023-03-21T09:55:31.090Z,23.90
2023-03-21T09:58:06.650Z,23.47
2023-03-21T10:00:40.126Z,22.83
2023-03-21T10:03:23.534Z,23.53
2023-03-21T10:05:54.612Z,21.73
2023-03-21T10:08:27.248Z,22.60
2023-03-21T10:10:59.909Z,22.20
2023-03-21T10:13:30.499Z,21.30
2023-03-21T10:16:01.928Z,22.97
2023-03-21T10:18:32.338Z,22.27
2023-03-21T10:21:01.067Z,22.57
2023-03-21T10:23:30.836Z,23.87
2023-03-21T10:26:02.049Z,24.40
2023-03-21T10:28:46.203Z,23.93
2023-03-21T10:31:25.096Z,25.13
2023-03-21T10:33:58.326Z,25.10
2023-03-21T10:36:30.134Z,24.20
2023-03-21T10:39:01.705Z,24.27
2023-03-21T10:41:29.869Z,24.13
2023-03-21T10:44:11.430Z,23.77
2023-03-21T10:46:39.865Z,23.47
2023-03-21T10:49:10.050Z,23.70
2023-03-21T10:51:40.479Z,22.60
2023-03-21T10:54:13.236Z,21.90
2023-03-21T10:56:46.793Z,20.83
2023-03-21T10:59:20.578Z,20.33
2023-03-21T11:01:51.530Z,19.47
2023-03-21T11:04:25.020Z,20.90
2023-03-21T11:06:55.876Z,20.53
2023-03-21T11:09:25.989Z,19.53
2023-03-21T11:11:55.853Z,18.87
2023-03-21T11:14:34.278Z,20.13
2023-03-21T11:17:02.570Z,17.77
2023-03-21T11:19:34.676Z,17.57
2023-03-21T11:22:07.832Z,17.37
2023-03-21T11:24:37.507Z,18.60
2023-03-21T11:27:08.788Z,18.43
2023-03-21T11:29:39.190Z,18.43
2023-03-21T11:32:12.826Z,19.30
2023-03-21T11:34:47.445Z,18.10
2023-03-21T11:37:26.206Z,18.33
2023-03-21T11:40:08.929Z,17.23
2023-03-21T11:42:44.836Z,17.40
2023-03-21T11:45:15.249Z,16.60
2023-03-21T11:47:43.670Z,16.73
2023-03-21T11:50:19.315Z,16.27
2023-03-21T11:53:04.750Z,15.43
2023-03-21T11:55:40.492Z,15.43
2023-03-21T11:58:32.913Z,15.77
2023-03-21T12:01:10.073Z,15.63
2023-03-21T12:03:49.469Z,16.03
2023-03-21T12:06:27.088Z,17.37
2023-03-21T12:09:05.560Z,16.30
2023-03-21T12:11:44.159Z,17.17
2023-03-21T12:14:18.323Z,17.27
2023-03-21T12:16:56.764Z,16.53
2023-03-21T12:19:43.563Z,17.83
2023-03-21T12:22:25.829Z,17.50
2023-03-21T12:24:56.158Z,18.57
2023-03-21T12:27:36.978Z,18.77
2023-03-21T12:30:24.318Z,18.03
2023-03-21T12:33:06.397Z,19.10
2023-03-21T12:35:50.616Z,19.00
2023-03-21T12:38:26.185Z,19.03
2023-03-21T12:41:20.180Z,19.07
2023-03-21T12:43:55.456Z,19.80
2023-03-21T12:46:28.357Z,20.00
2023-03-21T12:49:01.097Z,19.73
2023-03-21T12:51:32.995Z,20.33
2023-03-21T12:54:08.935Z,20.13
2023-03-21T12:56:47.800Z,19.27
2023-03-21T12:59:23.832Z,19.70
2023-03-21T13:01:55.996Z,20.13
2023-03-21T13:04:40.048Z,20.60
2023-03-21T13:07:13.687Z,18.97
2023-03-21T13:09:43.360Z,19.27
2023-03-21T13:12:27.181Z,18.50
2023-03-21T13:15:12.459Z,19.00
2023-03-21T13:17:49.165Z,17.93
2023-03-21T13:20:23.437Z,17.77
2023-03-21T13:22:51.462Z,18.87
2023-03-21T13:25:23.427Z,18.50
2023-03-21T13:27:56.260Z,17.70
2023-03-21T13:30:27.179Z,18.07
2023-03-21T13:33:06.397Z,18.13
2023-03-21T13:35:38.558Z,17.07
2023-03-21T13:38:15.051Z,18.70
2023-03-21T13:40:48.705Z,17.40
2023-03-21T13:43:43.031Z,17.37
2023-03-21T13:46:12.654Z,16.50
2023-03-21T13:49:00.277Z,15.60
2023-03-21T13:51:47.462Z,16.07
2023-03-21T13:54:24.073Z,14.23
2023-03-21T13:56:55.375Z,13.90
2023-03-21T13:59:42.499Z,13.47
2023-03-21T14:02:32.824Z,13.43
2023-03-21T14:05:06.012Z,13.27
2023-03-21T14:07:36.868Z,12.70
2023-03-21T14:10:09.547Z,13.10
2023-03-21T14:12:43.397Z,12.67
2023-03-21T14:15:20.413Z,12.70
2023-03-21T14:17:54.364Z,12.97
2023-03-21T14:20:25.365Z,13.20
2023-03-21T14:22:53.715Z,12.80
2023-03-21T14:25:27.182Z,13.30
2023-03-21T14:28:01.185Z,13.00
2023-03-21T14:30:33.234Z,12.87
2023-03-21T14:33:06.799Z,13.17
2023-03-21T14:35:35.220Z,13.20
2023-03-21T14:38:07.312Z,14.20
2023-03-21T14:40:35.761Z,12.80
2023-03-21T14:43:07.292Z,13.80
2023-03-21T14:45:37.440Z,14.40
2023-03-21T14:48:07.662Z,14.07
2023-03-21T14:50:41.399Z,13.53
2023-03-21T14:53:16.352Z,13.67
2023-03-21T14:55:46.218Z,13.87
2023-03-21T14:58:17.962Z,13.43
2023-03-21T15:00:50.499Z,14.10
2023-03-21T15:03:19.920Z,14.37
2023-03-21T15:05:48.064Z,15.10
2023-03-21T15:08:18.349Z,14.20
2023-03-21T15:11:06.288Z,14.37
2023-03-21T15:13:41.207Z,14.47
2023-03-21T15:16:10.978Z,14.10
2023-03-21T15:18:41.153Z,13.03
2023-03-21T15:21:12.267Z,13.03
2023-03-21T15:23:43.986Z,12.77
2023-03-21T15:26:17.308Z,13.67
2023-03-21T15:28:49.101Z,12.93
2023-03-21T15:31:19.424Z,12.50
2023-03-21T15:33:48.749Z,12.73
2023-03-21T15:36:20.475Z,13.03
2023-03-21T15:38:49.579Z,12.97
2023-03-21T15:41:28.333Z,13.20
2023-03-21T15:44:03.866Z,14.10
2023-03-21T15:46:41.866Z,13.17
2023-03-21T15:49:11.486Z,13.87
2023-03-21T15:51:39.737Z,13.90
2023-03-21T15:54:15.154Z,13.93
2023-03-21T15:56:45.863Z,13.40
2023-03-21T15:59:19.469Z,13.33
2023-03-21T16:01:48.752Z,12.90
2023-03-21T16:04:18.380Z,12.87
2023-03-21T16:06:55.030Z,12.90
2023-03-21T16:09:23.475Z,13.23
2023-03-21T16:11:52.628Z,13.80
2023-03-21T16:14:22.816Z,13.27
2023-03-21T16:16:51.573Z,13.43
2023-03-21T16:19:19.534Z,13.60
2023-03-21T16:21:48.412Z,12.90
2023-03-21T16:24:16.338Z,12.80
2023-03-21T16:26:47.651Z,14.27
2023-03-21T16:29:16.503Z,13.87
2023-03-21T16:31:48.813Z,13.47
2023-03-21T16:34:16.893Z,13.90
2023-03-21T16:36:44.795Z,13.27
2023-03-21T16:39:18.248Z,12.87
2023-03-21T16:41:46.602Z,12.40
2023-03-21T16:44:14.652Z,12.33
2023-03-21T16:46:42.706Z,11.50
2023-03-21T16:49:20.449Z,12.50
2023-03-21T16:51:49.258Z,11.37
2023-03-21T16:54:17.306Z,12.13
2023-03-21T16:56:48.409Z,12.10
2023-03-21T16:59:16.711Z,11.90
2023-03-21T17:01:46.164Z,12.00
2023-03-21T17:04:15.990Z,12.30
2023-03-21T17:06:47.576Z,11.47
2023-03-21T17:09:17.597Z,11.60
2023-03-21T17:11:46.541Z,11.73
2023-03-21T17:14:16.732Z,12.03
2023-03-21T17:16:45.683Z,11.30
2023-03-21T17:19:16.044Z,10.33
2023-03-21T17:21:46.486Z,10.27
2023-03-21T17:24:14.743Z,10.73
2023-03-21T17:26:42.708Z,10.63
2023-03-21T17:29:13.060Z,11.20
2023-03-21T17:31:42.505Z,10.60
2023-03-21T17:34:10.942Z,10.47
2023-03-21T17:36:41.199Z,10.60
2023-03-21T17:39:17.766Z,11.37
2023-03-21T17:41:45.756Z,10.50
2023-03-21T17:44:13.638Z,11.17
2023-03-21T17:46:41.712Z,10.40
2023-03-21T17:49:13.796Z,10.33
2023-03-21T17:51:41.938Z,10.50
2023-03-21T17:54:11.416Z,10.53
2023-03-21T17:56:41.635Z,11.00
2023-03-21T17:59:14.387Z,11.83
2023-03-21T18:01:42.720Z,10.87
2023-03-21T18:04:11.061Z,10.93
2023-03-21T18:06:39.364Z,10.80
2023-03-21T18:09:11.387Z,11.30
2023-03-21T18:11:41.543Z,13.93
2023-03-21T18:14:19.493Z,13.47
2023-03-21T18:16:54.089Z,14.83
2023-03-21T18:19:22.129Z,12.90
2023-03-21T18:21:50.300Z,12.30
2023-03-21T18:24:18.244Z,12.27
2023-03-21T18:26:47.790Z,11.60
2023-03-21T18:32:08.343Z,12.00
2023-03-21T18:34:39.385Z,12.43
2023-03-21T18:37:08.495Z,12.53
2023-03-21T18:39:37.101Z,12.20
2023-03-21T18:42:07.476Z,12.43
2023-03-21T18:44:46.788Z,12.60
2023-03-21T18:47:16.996Z,13.07
2023-03-21T18:52:33.529Z,12.97
2023-03-21T18:55:02.681Z,13.50
2023-03-21T18:57:36.916Z,13.20
2023-03-21T19:00:12.401Z,13.30
2023-03-21T19:02:45.525Z,13.60
2023-03-21T19:05:15.527Z,14.50
2023-03-21T19:07:43.522Z,13.30
2023-03-21T19:10:18.142Z,14.23
2023-03-21T19:12:47.938Z,14.27
2023-03-21T19:15:18.596Z,14.10
2023-03-21T19:18:26.608Z,15.03
2023-03-21T19:20:35.095Z,14.97
2023-03-21T19:23:03.281Z,15.23
2023-03-21T19:25:31.346Z,14.77
2023-03-21T19:28:00.675Z,15.40
2023-03-21T19:30:28.667Z,15.07
2023-03-21T19:32:56.768Z,15.07
2023-03-21T19:35:25.220Z,16.03
2023-03-21T19:37:53.302Z,15.43
2023-03-21T19:40:21.653Z,15.40
2023-03-21T19:42:49.624Z,15.73
2023-03-21T19:45:19.156Z,16.60
2023-03-21T19:47:47.186Z,16.53
2023-03-21T19:50:47.313Z,15.93
2023-03-21T19:53:03.242Z,16.50
2023-03-21T19:55:31.402Z,16.63
2023-03-21T19:57:59.589Z,16.60
2023-03-21T20:00:29.194Z,16.77
2023-03-21T20:02:57.266Z,16.30
2023-03-21T20:05:26.045Z,16.90
2023-03-21T20:07:55.353Z,16.60
2023-03-21T20:10:23.571Z,16.80
2023-03-21T20:12:51.620Z,16.47
2023-03-21T20:15:21.805Z,16.73
2023-03-21T20:17:52.316Z,16.70
2023-03-21T20:20:21.249Z,17.53
2023-03-21T20:23:11.018Z,18.07
2023-03-21T20:25:43.137Z,17.60
2023-03-21T20:28:16.462Z,18.40
2023-03-21T20:30:52.836Z,18.13
2023-03-21T20:33:23.209Z,17.67
2023-03-21T20:38:45.525Z,18.50
2023-03-21T20:41:13.704Z,18.70
2023-03-21T20:46:31.404Z,19.07
2023-03-21T20:49:00.773Z,18.37
2023-03-21T20:54:17.760Z,19.10
2023-03-21T20:56:45.796Z,19.63
2023-03-21T20:59:26.114Z,19.33
2023-03-21T21:01:55.166Z,20.27
2023-03-21T21:04:42.847Z,20.10
2023-03-21T21:07:15.972Z,19.63
2023-03-21T21:09:45.068Z,19.30
2023-03-21T21:12:14.379Z,20.07
2023-03-21T21:14:43.541Z,20.63
2023-03-21T21:17:54.193Z,20.53
2023-03-21T21:20:08.656Z,19.80
2023-03-21T21:22:38.871Z,20.50
2023-03-21T21:25:07.949Z,19.47
2023-03-21T21:27:36.040Z,18.93
2023-03-21T21:30:04.311Z,18.33
2023-03-21T21:32:32.316Z,18.90
2023-03-21T21:35:01.644Z,18.70
2023-03-21T21:37:33.821Z,19.00
2023-03-21T21:40:12.599Z,18.53
2023-03-21T21:42:42.565Z,19.27
2023-03-21T21:45:12.589Z,19.03
2023-03-21T21:47:41.440Z,18.60
2023-03-21T21:50:11.382Z,18.90
2023-03-21T21:52:39.538Z,18.30
2023-03-21T21:55:08.092Z,18.40
2023-03-21T21:57:36.266Z,19.13
2023-03-21T22:00:06.486Z,18.30
2023-03-21T22:02:39.766Z,19.17
2023-03-21T22:05:08.779Z,18.20
2023-03-21T22:07:38.955Z,18.23
2023-03-21T22:10:08.165Z,18.80
2023-03-21T22:12:36.139Z,17.47
2023-03-21T22:15:04.845Z,17.60
2023-03-21T22:17:32.722Z,17.80
2023-03-21T22:20:06.024Z,17.87
2023-03-21T22:22:34.741Z,17.37
2023-03-21T22:25:04.530Z,16.80
2023-03-21T22:27:32.953Z,16.20
2023-03-21T22:30:04.567Z,16.07
2023-03-21T22:32:32.551Z,16.37
2023-03-21T22:35:02.284Z,16.13
2023-03-21T22:37:30.521Z,16.57
2023-03-21T22:39:58.390Z,15.83
2023-03-21T22:42:28.281Z,15.30
2023-03-21T22:44:56.230Z,15.90
2023-03-21T22:47:24.206Z,16.03
2023-03-21T22:49:52.199Z,16.57
2023-03-21T22:52:20.328Z,16.10
2023-03-21T22:54:49.106Z,15.63
2023-03-21T22:57:17.909Z,15.90
2023-03-21T22:59:48.185Z,15.43
2023-03-21T23:02:16.422Z,15.13
2023-03-21T23:04:44.506Z,15.07
2023-03-21T23:07:12.537Z,15.13
2023-03-21T23:09:40.622Z,14.07
2023-03-21T23:12:08.675Z,14.00
2023-03-21T23:14:36.694Z,14.87
2023-03-21T23:17:05.954Z,13.97
2023-03-21T23:19:33.893Z,13.50
2023-03-21T23:22:01.857Z,15.20
2023-03-21T23:24:29.756Z,13.47
2023-03-21T23:26:57.729Z,13.00
2023-03-21T23:29:25.863Z,13.90
2023-03-21T23:31:53.818Z,13.10
2023-03-21T23:34:23.262Z,13.67
2023-03-21T23:36:51.504Z,12.93
2023-03-21T23:39:20.165Z,13.40
2023-03-21T23:41:48.114Z,13.20
2023-03-21T23:44:16.306Z,13.53
2023-03-21T23:46:44.286Z,13.73
2023-03-21T23:49:14.967Z,13.23
2023-03-21T23:51:44.718Z,13.60
2023-03-21T23:54:12.650Z,12.73
2023-03-21T23:56:40.569Z,12.70
2023-03-21T23:59:08.565Z,12.97
